Time;durP1;ratioP1;P1;durP2;ratioP2;P2;SDS_P1;SDS_P2;PMS_P1;PMS_P2;Temp;Humidity;BMP_temperature;BMP_pressure;BME280_temperature;BME280_humidity;BME280_pressure;Samples;Min_cycle;Max_cycle;Signal;HPM_P1;HPM_P2
2021/06/25 00:01:28;;;;;;;35.42;20.48;;;15.70;99.90;;;;;;4977318;28;20214;-82
2021/06/25 00:03:53;;;;;;;26.10;20.02;;;15.50;99.90;;;;;;4991763;28;20186;-82
2021/06/25 00:06:19;;;;;;;25.25;19.65;;;15.40;99.90;;;;;;4977173;28;20166;-83
2021/06/25 00:08:45;;;;;;;27.48;19.80;;;15.50;99.90;;;;;;4977225;28;20177;-82
2021/06/25 00:11:11;;;;;;;33.30;21.80;;;15.50;99.90;;;;;;4977317;28;20166;-80
2021/06/25 00:13:37;;;;;;;33.50;20.30;;;15.40;99.90;;;;;;4976987;28;20662;-82
2021/06/25 00:16:02;;;;;;;22.33;19.50;;;15.40;99.90;;;;;;4977186;28;20209;-81
2021/06/25 00:18:28;;;;;;;26.08;18.80;;;15.40;99.90;;;;;;4976885;28;20174;-84
2021/06/25 00:20:54;;;;;;;24.48;20.17;;;15.10;99.90;;;;;;4977292;28;20585;-83
2021/06/25 00:23:19;;;;;;;30.27;21.88;;;15.10;99.90;;;;;;4976594;28;20186;-80
2021/06/25 00:25:45;;;;;;;27.35;20.75;;;15.30;99.90;;;;;;4976512;28;20170;-82
2021/06/25 00:28:11;;;;;;;25.73;20.48;;;15.30;99.90;;;;;;4991704;28;20586;-79
2021/06/25 00:30:38;;;;;;;27.20;19.20;;;15.30;99.90;;;;;;4991971;28;20178;-82
2021/06/25 00:33:03;;;;;;;26.17;21.45;;;15.40;99.90;;;;;;4976453;28;20194;-82
2021/06/25 00:35:29;;;;;;;27.50;18.70;;;15.40;99.90;;;;;;4976517;28;20209;-84
2021/06/25 00:37:55;;;;;;;25.17;19.98;;;15.20;99.90;;;;;;4976545;28;20166;-81
2021/06/25 00:40:20;;;;;;;27.30;20.83;;;15.20;99.90;;;;;;4976313;28;20181;-81
2021/06/25 00:42:46;;;;;;;26.80;20.20;;;15.20;99.90;;;;;;4976138;28;20237;-84
2021/06/25 00:45:19;;;;;;;26.10;20.10;;;15.20;99.90;;;;;;4976309;28;20189;-84
2021/06/25 00:47:47;;;;;;;23.70;18.48;;;15.30;99.90;;;;;;4976407;28;20166;-80
2021/06/25 00:50:17;;;;;;;28.27;18.83;;;15.10;99.90;;;;;;4991358;28;20174;-83
2021/06/25 00:52:43;;;;;;;22.63;18.40;;;14.90;99.90;;;;;;4976012;28;20190;-81
2021/06/25 00:55:11;;;;;;;24.33;19.05;;;14.90;99.90;;;;;;4990776;28;20201;-81
2021/06/25 00:57:36;;;;;;;28.35;19.48;;;15.00;99.90;;;;;;4991077;28;20702;-81
2021/06/25 01:00:06;;;;;;;29.08;18.50;;;14.90;99.90;;;;;;4976424;28;20281;-80
2021/06/25 01:02:32;;;;;;;26.85;19.58;;;14.80;99.90;;;;;;4976248;28;20280;-82
2021/06/25 01:04:57;;;;;;;20.23;17.60;;;14.70;99.90;;;;;;4991170;28;20293;-80
2021/06/25 01:07:24;;;;;;;30.58;18.30;;;14.80;99.90;;;;;;4976404;28;20174;-81
2021/06/25 01:09:51;;;;;;;19.67;17.35;;;14.80;99.90;;;;;;4976050;28;20685;-85
2021/06/25 01:12:17;;;;;;;26.95;18.58;;;14.80;99.90;;;;;;4975922;28;20193;-81
2021/06/25 01:14:43;;;;;;;21.67;17.35;;;14.80;99.90;;;;;;4975885;28;20162;-81
2021/06/25 01:17:36;;;;;;;21.45;16.67;;;14.70;99.90;;;;;;4976033;28;20538;-80
2021/06/25 01:20:07;;;;;;;20.17;16.63;;;14.70;99.90;;;;;;4975866;28;20207;-81
2021/06/25 01:22:38;;;;;;;20.00;16.20;;;14.70;99.90;;;;;;4974445;28;20280;-83
2021/06/25 01:25:12;;;;;;;21.52;17.05;;;14.80;99.90;;;;;;4975613;28;20701;-80
2021/06/25 01:27:39;;;;;;;23.10;16.88;;;14.90;99.90;;;;;;4974230;28;20182;-80
2021/06/25 01:30:11;;;;;;;26.02;17.35;;;14.90;99.90;;;;;;4976425;28;20211;-81
2021/06/25 01:32:38;;;;;;;21.95;16.30;;;14.80;99.90;;;;;;4974956;28;20674;-82
2021/06/25 01:35:05;;;;;;;26.35;17.98;;;14.80;99.90;;;;;;4975675;28;20181;-81
2021/06/25 01:37:31;;;;;;;21.55;16.67;;;14.90;99.90;;;;;;4975488;28;20182;-81
2021/06/25 01:39:57;;;;;;;19.55;16.48;;;15.00;99.90;;;;;;4975205;28;20166;-82
2021/06/25 01:42:23;;;;;;;21.85;16.70;;;15.00;99.90;;;;;;4990244;28;20576;-83
2021/06/25 01:44:51;;;;;;;19.65;15.60;;;15.10;99.90;;;;;;4975440;28;20233;-81
2021/06/25 01:47:18;;;;;;;18.20;15.43;;;15.00;99.90;;;;;;4991075;28;20268;-83
2021/06/25 01:49:44;;;;;;;20.48;16.05;;;14.80;99.90;;;;;;4976222;28;20249;-85
2021/06/25 01:52:19;;;;;;;25.48;14.82;;;14.70;99.90;;;;;;4996815;28;20222;-81
2021/06/25 01:54:46;;;;;;;16.38;13.50;;;14.80;99.90;;;;;;4994244;28;20185;-82
2021/06/25 01:57:13;;;;;;;16.85;15.10;;;14.70;99.90;;;;;;4980071;28;20181;-85
2021/06/25 01:59:39;;;;;;;22.77;16.75;;;14.90;99.90;;;;;;4977948;28;20170;-80
2021/06/25 02:02:05;;;;;;;24.83;16.25;;;15.20;99.90;;;;;;4993451;28;20284;-80
2021/06/25 02:04:31;;;;;;;23.13;16.35;;;15.30;99.90;;;;;;4993660;28;20204;-80
2021/06/25 02:06:56;;;;;;;36.08;15.65;;;15.30;99.90;;;;;;4991999;28;20170;-79
2021/06/25 02:09:22;;;;;;;19.08;16.80;;;15.30;99.90;;;;;;4976813;28;20192;-82
2021/06/25 02:11:48;;;;;;;28.65;15.20;;;15.40;99.90;;;;;;4977737;28;20197;-81
2021/06/25 02:14:14;;;;;;;19.20;15.52;;;15.40;99.90;;;;;;4976344;28;20169;-82
2021/06/25 02:16:39;;;;;;;19.88;14.85;;;15.30;99.90;;;;;;4990478;28;20209;-85
2021/06/25 02:19:05;;;;;;;23.40;15.90;;;15.30;99.90;;;;;;4976353;28;20646;-83
2021/06/25 02:21:31;;;;;;;20.65;14.52;;;15.30;99.90;;;;;;4991033;28;20673;-82
2021/06/25 02:23:56;;;;;;;25.67;15.63;;;15.20;99.90;;;;;;4989869;28;20501;-82
2021/06/25 02:26:22;;;;;;;25.52;17.27;;;15.10;99.90;;;;;;4975438;28;20174;-82
2021/06/25 02:28:48;;;;;;;19.48;14.45;;;15.20;99.90;;;;;;4975517;28;20225;-81
2021/06/25 02:31:14;;;;;;;20.92;15.15;;;15.30;99.90;;;;;;4990400;28;20173;-80
2021/06/25 02:33:39;;;;;;;20.52;15.20;;;15.20;99.90;;;;;;4975207;28;20718;-81
2021/06/25 02:36:05;;;;;;;19.27;15.65;;;15.30;99.90;;;;;;4991936;28;20682;-80
2021/06/25 02:38:31;;;;;;;20.70;15.57;;;15.50;99.90;;;;;;4977142;28;20221;-81
2021/06/25 02:40:57;;;;;;;22.00;15.43;;;15.20;99.90;;;;;;4977578;28;20558;-80
2021/06/25 02:43:22;;;;;;;17.92;14.68;;;15.10;99.90;;;;;;4977439;28;20177;-81
2021/06/25 02:45:48;;;;;;;17.88;15.43;;;15.10;99.90;;;;;;4978222;28;20228;-81
2021/06/25 02:48:14;;;;;;;17.83;14.73;;;15.00;99.90;;;;;;4983128;28;20250;-80
2021/06/25 02:50:39;;;;;;;21.00;15.05;;;15.00;99.90;;;;;;4995669;28;20182;-81
2021/06/25 02:53:05;;;;;;;20.65;13.85;;;15.10;99.90;;;;;;4975788;28;20619;-80
2021/06/25 02:55:31;;;;;;;21.60;14.73;;;15.20;99.90;;;;;;4975695;28;20264;-80
2021/06/25 02:57:56;;;;;;;19.02;14.70;;;15.20;99.90;;;;;;4975261;28;20173;-82
2021/06/25 03:00:22;;;;;;;17.85;15.45;;;15.30;99.90;;;;;;4974962;28;20252;-81
2021/06/25 03:02:48;;;;;;;21.27;13.65;;;15.30;99.90;;;;;;4974080;28;20270;-81
2021/06/25 03:05:16;;;;;;;17.98;14.15;;;15.20;99.90;;;;;;4974489;28;20170;-81
2021/06/25 03:07:42;;;;;;;19.20;13.00;;;15.30;99.90;;;;;;4989041;28;20197;-82
2021/06/25 03:10:08;;;;;;;16.13;13.80;;;15.30;99.90;;;;;;4974113;28;20622;-85
2021/06/25 03:12:34;;;;;;;15.18;13.00;;;15.40;99.90;;;;;;4988927;28;20194;-81
2021/06/25 03:15:00;;;;;;;19.20;15.32;;;15.30;99.90;;;;;;4973977;28;20635;-81
2021/06/25 03:17:25;;;;;;;18.42;13.30;;;15.30;99.90;;;;;;4973765;28;20185;-82
2021/06/25 03:19:51;;;;;;;19.73;13.70;;;15.20;99.90;;;;;;4988593;28;20184;-81
2021/06/25 03:22:17;;;;;;;17.60;13.43;;;15.10;99.90;;;;;;4988367;28;20200;-82
2021/06/25 03:24:43;;;;;;;15.73;14.07;;;15.10;99.90;;;;;;4973594;28;20186;-82
2021/06/25 03:27:08;;;;;;;15.45;13.80;;;14.90;99.90;;;;;;4988977;28;20192;-81
2021/06/25 03:29:34;;;;;;;21.67;13.80;;;14.80;99.90;;;;;;4980474;28;20649;-82
2021/06/25 03:32:00;;;;;;;18.00;13.52;;;14.80;99.90;;;;;;4980533;28;20182;-82
2021/06/25 03:34:26;;;;;;;21.42;15.85;;;14.90;99.90;;;;;;4995504;28;20625;-82
2021/06/25 03:36:52;;;;;;;19.88;13.55;;;15.00;99.90;;;;;;4980564;28;20297;-82
2021/06/25 03:39:18;;;;;;;17.52;13.80;;;15.00;99.90;;;;;;4995471;28;20213;-82
2021/06/25 03:41:43;;;;;;;27.45;13.45;;;15.00;99.90;;;;;;4980104;28;20176;-82
2021/06/25 03:44:09;;;;;;;21.23;14.63;;;15.00;99.90;;;;;;4995140;28;20182;-82
2021/06/25 03:46:35;;;;;;;21.33;13.07;;;14.80;99.90;;;;;;4995147;28;20178;-82
2021/06/25 03:49:00;;;;;;;19.70;14.18;;;14.90;99.90;;;;;;4979931;28;20623;-81
2021/06/25 03:51:26;;;;;;;19.27;13.05;;;14.90;99.90;;;;;;4980352;28;20178;-81
2021/06/25 03:53:52;;;;;;;18.75;13.85;;;15.00;99.90;;;;;;4980702;28;20691;-83
2021/06/25 03:56:17;;;;;;;18.58;13.38;;;15.00;99.90;;;;;;4996301;28;20213;-85
2021/06/25 03:58:46;;;;;;;16.25;13.05;;;14.90;99.90;;;;;;4995717;28;20166;-83
2021/06/25 04:01:12;;;;;;;27.55;12.80;;;15.00;99.90;;;;;;4980667;28;20633;-82
2021/06/25 04:03:39;;;;;;;15.77;13.48;;;15.00;99.90;;;;;;4995730;28;20225;-81
2021/06/25 04:06:05;;;;;;;25.67;13.25;;;15.30;99.90;;;;;;4995002;28;20197;-81
2021/06/25 04:08:32;;;;;;;22.63;13.98;;;15.20;99.90;;;;;;4996019;28;20649;-82
2021/06/25 04:10:59;;;;;;;22.15;13.70;;;15.20;99.90;;;;;;4995884;28;20184;-81
2021/06/25 04:13:26;;;;;;;17.00;14.40;;;15.40;99.90;;;;;;4995772;28;20217;-81
2021/06/25 04:15:53;;;;;;;16.55;13.40;;;15.20;99.90;;;;;;4981449;28;20205;-84
2021/06/25 04:18:19;;;;;;;21.58;14.63;;;15.10;99.90;;;;;;4996553;28;20162;-80
2021/06/25 04:20:45;;;;;;;21.88;15.27;;;15.10;99.90;;;;;;4996017;28;20174;-80
2021/06/25 04:23:12;;;;;;;23.33;15.75;;;15.20;99.90;;;;;;4981354;28;20215;-81
2021/06/25 04:25:38;;;;;;;27.88;14.32;;;15.20;99.90;;;;;;4983817;28;20177;-80
2021/06/25 04:28:04;;;;;;;20.77;13.35;;;15.30;99.90;;;;;;5008019;28;20174;-81
2021/06/25 04:30:30;;;;;;;25.60;13.90;;;15.20;99.90;;;;;;4992535;28;20226;-81
2021/06/25 04:33:00;;;;;;;17.88;13.48;;;15.40;99.90;;;;;;5001431;28;20193;-82
2021/06/25 04:35:30;;;;;;;17.70;13.50;;;15.50;99.90;;;;;;4990217;28;20205;-86
2021/06/25 04:38:01;;;;;;;15.82;12.90;;;15.50;99.90;;;;;;5031233;23;20201;-79
2021/06/25 04:40:27;;;;;;;19.73;12.57;;;15.60;99.90;;;;;;4996165;28;20598;-80
2021/06/25 04:42:53;;;;;;;19.60;12.82;;;15.50;99.90;;;;;;5011548;28;20189;-80
2021/06/25 04:45:18;;;;;;;18.80;13.82;;;15.60;99.90;;;;;;4995422;28;20596;-80
2021/06/25 04:47:45;;;;;;;18.75;13.60;;;15.60;99.90;;;;;;4996521;28;20252;-81
2021/06/25 04:50:12;;;;;;;15.43;12.73;;;15.60;99.90;;;;;;4995129;28;20169;-81
2021/06/25 04:52:38;;;;;;;20.00;11.75;;;15.60;99.90;;;;;;4996418;28;20216;-81
2021/06/25 04:55:09;;;;;;;15.50;11.60;;;15.70;99.90;;;;;;4995199;28;20252;-80
2021/06/25 04:57:36;;;;;;;21.80;12.43;;;15.90;99.90;;;;;;4996199;28;20256;-81
2021/06/25 05:00:07;;;;;;;16.67;11.98;;;15.90;99.90;;;;;;4996582;28;20224;-82
2021/06/25 05:02:32;;;;;;;13.60;11.75;;;15.90;99.90;;;;;;4997912;28;20657;-81
2021/06/25 05:04:58;;;;;;;19.67;12.55;;;16.00;99.90;;;;;;4995652;28;20180;-80
2021/06/25 05:07:23;;;;;;;24.85;12.57;;;16.00;99.90;;;;;;5003197;28;20165;-86
2021/06/25 05:09:49;;;;;;;19.63;11.75;;;15.90;99.90;;;;;;5007683;28;20184;-82
2021/06/25 05:12:15;;;;;;;14.13;10.95;;;15.80;99.90;;;;;;4999025;28;20197;-89
2021/06/25 05:14:41;;;;;;;12.27;10.85;;;15.90;99.90;;;;;;4994800;28;20188;-83
2021/06/25 05:17:06;;;;;;;13.93;10.57;;;15.90;99.90;;;;;;4996176;28;20201;-87
2021/06/25 05:19:32;;;;;;;15.65;11.85;;;16.10;99.90;;;;;;4996696;28;20223;-86
2021/06/25 05:21:58;;;;;;;16.10;12.13;;;16.20;99.90;;;;;;4997048;28;20271;-89
2021/06/25 05:24:24;;;;;;;15.25;11.77;;;16.50;99.90;;;;;;4995150;28;20614;-85
2021/06/25 05:26:50;;;;;;;17.10;11.30;;;16.60;99.90;;;;;;5013635;28;20184;-86
2021/06/25 05:29:16;;;;;;;24.50;10.50;;;16.60;99.90;;;;;;5011466;28;20165;-87
2021/06/25 05:31:42;;;;;;;23.25;11.10;;;16.80;99.90;;;;;;4996453;28;20237;-87
2021/06/25 05:34:07;;;;;;;11.50;9.98;;;17.00;99.90;;;;;;5011238;28;20533;-86
2021/06/25 05:36:34;;;;;;;17.33;10.57;;;17.20;99.90;;;;;;5011233;28;20208;-86
2021/06/25 05:39:00;;;;;;;18.05;10.40;;;17.40;99.90;;;;;;5011416;28;20231;-84
2021/06/25 05:41:26;;;;;;;9.50;8.55;;;17.40;99.90;;;;;;4995805;28;20287;-85
2021/06/25 05:43:51;;;;;;;16.80;9.48;;;17.30;99.90;;;;;;4995977;28;20598;-84
2021/06/25 05:46:17;;;;;;;58.55;12.48;;;17.20;99.90;;;;;;4995845;28;20181;-85
2021/06/25 05:48:44;;;;;;;9.82;8.88;;;17.20;99.90;;;;;;4994635;28;20169;-84
2021/06/25 05:51:09;;;;;;;13.00;9.48;;;17.40;99.90;;;;;;4992685;28;20177;-84
2021/06/25 05:53:35;;;;;;;13.27;9.25;;;17.60;99.90;;;;;;4993892;28;20196;-83
2021/06/25 05:56:01;;;;;;;17.27;10.30;;;17.50;99.90;;;;;;5010232;28;20266;-83
2021/06/25 05:58:27;;;;;;;11.27;8.93;;;17.30;99.90;;;;;;4995752;28;20169;-84
2021/06/25 06:00:52;;;;;;;10.40;9.10;;;17.30;99.90;;;;;;4994929;28;20180;-81
2021/06/25 06:03:18;;;;;;;12.05;8.48;;;17.10;99.90;;;;;;4994776;28;20207;-78
2021/06/25 06:05:44;;;;;;;13.20;8.85;;;17.10;99.90;;;;;;4994194;28;20176;-79
2021/06/25 06:08:09;;;;;;;18.50;9.15;;;17.00;99.90;;;;;;4994506;28;20201;-78
2021/06/25 06:10:35;;;;;;;12.13;8.55;;;17.00;99.90;;;;;;4994498;28;20612;-78
2021/06/25 06:13:01;;;;;;;8.80;7.90;;;17.30;99.90;;;;;;4994253;28;20197;-81
2021/06/25 06:15:28;;;;;;;12.50;8.55;;;17.60;99.90;;;;;;4994239;28;20200;-78
2021/06/25 06:17:56;;;;;;;8.95;8.02;;;17.70;99.90;;;;;;4993945;28;20180;-77
2021/06/25 06:20:24;;;;;;;12.57;8.40;;;17.40;99.90;;;;;;4993802;28;20653;-83
2021/06/25 06:31:20;;;;;;;9.77;7.22;;;17.50;99.90;;;;;;4994705;28;20247;-78
2021/06/25 06:36:23;;;;;;;15.73;7.97;;;17.60;99.90;;;;;;4994093;28;20724;-80
2021/06/25 06:38:50;;;;;;;11.90;7.35;;;17.70;99.90;;;;;;5009049;28;20831;-83
2021/06/25 06:41:16;;;;;;;8.60;6.63;;;17.50;99.90;;;;;;4993990;28;20200;-77
2021/06/25 06:43:43;;;;;;;14.57;7.20;;;17.70;99.90;;;;;;4995147;28;20189;-79
2021/06/25 06:46:12;;;;;;;15.82;8.77;;;18.00;99.90;;;;;;5011042;28;20149;-79
2021/06/25 06:48:46;;;;;;;8.65;7.57;;;18.00;99.90;;;;;;5014130;28;20176;-81
2021/06/25 06:51:12;;;;;;;12.13;6.88;;;18.20;99.90;;;;;;5030040;28;20173;-80
2021/06/25 06:53:43;;;;;;;8.02;7.32;;;18.40;99.90;;;;;;5012177;28;20212;-80
2021/06/25 06:56:10;;;;;;;10.00;6.05;;;17.70;99.90;;;;;;4994178;28;20201;-80
2021/06/25 06:58:36;;;;;;;6.60;6.00;;;17.70;99.90;;;;;;5008295;28;20231;-79
2021/06/25 07:01:02;;;;;;;7.57;6.78;;;18.00;99.90;;;;;;4990819;28;20268;-78
2021/06/25 07:03:27;;;;;;;8.82;6.40;;;18.10;99.90;;;;;;4993153;28;20327;-78
2021/06/25 07:05:53;;;;;;;8.27;6.10;;;18.20;99.90;;;;;;4993329;28;20165;-79
2021/06/25 07:08:19;;;;;;;7.65;6.22;;;18.50;99.90;;;;;;4993778;28;20180;-80
2021/06/25 07:10:45;;;;;;;6.95;6.15;;;18.70;99.90;;;;;;4993786;28;20161;-81
2021/06/25 07:13:12;;;;;;;7.93;5.95;;;18.90;99.90;;;;;;5008292;28;20185;-80
2021/06/25 07:15:38;;;;;;;7.22;6.18;;;18.80;99.90;;;;;;5008614;28;20684;-78
2021/06/25 07:18:04;;;;;;;9.88;5.88;;;18.80;99.90;;;;;;4993696;28;20180;-80
2021/06/25 07:20:30;;;;;;;12.38;5.80;;;19.10;99.90;;;;;;4993657;28;20219;-80
2021/06/25 07:22:55;;;;;;;12.23;5.75;;;19.20;99.90;;;;;;4993421;28;20212;-83
2021/06/25 07:25:21;;;;;;;9.35;6.10;;;19.40;99.90;;;;;;4993704;28;20725;-81
2021/06/25 07:27:47;;;;;;;6.57;5.85;;;19.20;99.90;;;;;;5009339;28;20530;-81
2021/06/25 07:30:13;;;;;;;11.77;5.90;;;19.40;99.90;;;;;;4993427;28;20162;-80
2021/06/25 07:32:39;;;;;;;6.68;5.18;;;20.00;99.90;;;;;;4993718;28;20212;-80
2021/06/25 07:35:06;;;;;;;13.48;5.80;;;20.00;99.90;;;;;;4993345;28;20620;-81
2021/06/25 07:37:31;;;;;;;8.15;5.15;;;20.40;99.90;;;;;;4993418;28;20208;-81
2021/06/25 07:39:57;;;;;;;7.60;5.57;;;20.90;99.90;;;;;;4991365;28;20219;-81
2021/06/25 07:42:25;;;;;;;5.22;4.72;;;21.00;99.90;;;;;;5008717;28;20654;-88
2021/06/25 07:44:51;;;;;;;6.15;5.55;;;20.60;99.90;;;;;;5011652;28;20169;-87
2021/06/25 07:47:17;;;;;;;10.48;5.78;;;20.80;99.90;;;;;;4995759;28;20641;-87
2021/06/25 07:49:44;;;;;;;5.95;5.38;;;21.00;99.90;;;;;;5010987;28;20169;-89
2021/06/25 07:52:10;;;;;;;7.93;6.03;;;21.00;99.90;;;;;;4995485;28;20193;-88
2021/06/25 07:54:36;;;;;;;7.55;5.60;;;21.00;99.90;;;;;;5010443;28;20180;-86
2021/06/25 07:57:02;;;;;;;5.90;5.15;;;20.70;99.90;;;;;;5012683;28;20205;-87
2021/06/25 07:59:28;;;;;;;6.50;5.82;;;20.40;99.90;;;;;;4993728;28;20529;-84
2021/06/25 08:01:54;;;;;;;16.13;5.32;;;20.50;99.90;;;;;;5011198;28;20234;-85
2021/06/25 08:04:19;;;;;;;9.05;6.10;;;20.40;99.90;;;;;;4994086;28;20621;-87
2021/06/25 08:06:45;;;;;;;8.07;5.22;;;20.50;99.90;;;;;;5009757;28;20191;-86
2021/06/25 08:09:11;;;;;;;18.38;5.05;;;20.40;99.90;;;;;;4994694;28;20228;-85
2021/06/25 08:11:38;;;;;;;9.55;6.15;;;20.50;99.90;;;;;;5009922;28;20622;-88
2021/06/25 08:14:04;;;;;;;8.15;6.45;;;20.50;99.90;;;;;;5009824;28;20180;-86
2021/06/25 08:16:29;;;;;;;6.15;5.47;;;20.70;99.90;;;;;;5013200;28;20204;-87
2021/06/25 08:18:58;;;;;;;6.60;6.00;;;20.80;99.90;;;;;;5013362;28;20161;-88
2021/06/25 08:21:29;;;;;;;15.65;5.47;;;20.80;99.90;;;;;;5013414;28;20177;-85
2021/06/25 08:23:55;;;;;;;10.43;5.75;;;20.90;99.90;;;;;;5012765;28;20164;-86
2021/06/25 08:26:21;;;;;;;8.40;5.78;;;21.00;99.90;;;;;;5012608;28;20608;-86
2021/06/25 08:28:48;;;;;;;5.45;4.95;;;20.90;99.90;;;;;;4997656;28;20161;-85
2021/06/25 08:31:14;;;;;;;8.52;5.68;;;20.90;99.90;;;;;;4998748;28;20173;-88
2021/06/25 08:33:40;;;;;;;8.98;5.80;;;20.60;99.90;;;;;;5010451;28;20224;-86
2021/06/25 08:36:06;;;;;;;6.63;4.75;;;20.70;99.90;;;;;;5011877;28;20716;-86
2021/06/25 08:38:32;;;;;;;7.13;5.18;;;20.60;99.90;;;;;;4996807;28;20193;-87
2021/06/25 08:40:59;;;;;;;5.20;4.70;;;20.40;99.90;;;;;;5012102;28;20228;-85
2021/06/25 08:43:27;;;;;;;7.65;5.90;;;20.40;99.90;;;;;;4999777;28;20200;-87
2021/06/25 08:45:52;;;;;;;10.25;5.13;;;20.50;99.90;;;;;;4999392;28;20625;-84
2021/06/25 08:48:18;;;;;;;7.80;5.55;;;20.40;99.90;;;;;;4994567;28;20281;-83
2021/06/25 08:50:49;;;;;;;11.35;4.85;;;20.50;99.90;;;;;;4995105;28;20173;-83
2021/06/25 08:53:16;;;;;;;9.93;5.15;;;21.10;99.90;;;;;;4995782;28;20197;-82
2021/06/25 08:55:45;;;;;;;6.38;4.55;;;21.50;99.90;;;;;;4995163;28;20319;-84
2021/06/25 08:58:13;;;;;;;7.18;5.30;;;21.60;99.90;;;;;;4995415;28;20260;-84
2021/06/25 09:00:38;;;;;;;10.02;5.07;;;21.60;99.90;;;;;;4996107;28;20183;-85
2021/06/25 09:03:04;;;;;;;6.22;5.00;;;21.60;99.90;;;;;;4994731;28;20714;-83
2021/06/25 09:05:29;;;;;;;5.55;5.05;;;21.60;99.90;;;;;;4994379;28;20263;-85
2021/06/25 09:07:57;;;;;;;6.95;6.13;;;21.20;99.90;;;;;;4996842;28;20645;-88
2021/06/25 09:10:36;;;;;;;6.10;5.43;;;21.20;99.90;;;;;;4999665;28;20260;-90
2021/06/25 09:13:10;;;;;;;9.40;5.53;;;21.50;99.90;;;;;;5007026;28;20193;-81
2021/06/25 09:15:36;;;;;;;8.27;5.63;;;21.50;99.90;;;;;;5012452;28;20351;-86
2021/06/25 09:18:05;;;;;;;8.48;5.50;;;21.30;99.90;;;;;;4997366;28;20184;-84
2021/06/25 09:20:49;;;;;;;6.18;5.47;;;21.50;99.90;;;;;;5016013;28;20200;-90
2021/06/25 09:23:36;;;;;;;5.50;5.00;;;21.70;99.90;;;;;;5017760;28;20192;-88
2021/06/25 09:26:11;;;;;;;6.20;5.68;;;22.00;99.90;;;;;;5002027;28;20177;-79
2021/06/25 09:28:39;;;;;;;5.45;4.78;;;22.10;99.90;;;;;;5031702;28;20179;-80
2021/06/25 09:31:25;;;;;;;6.45;4.97;;;22.10;99.90;;;;;;5036091;28;20168;-85
2021/06/25 09:33:56;;;;;;;10.70;5.18;;;22.20;99.90;;;;;;5034568;28;20177;-88
2021/06/25 09:36:28;;;;;;;6.35;5.65;;;22.40;99.90;;;;;;5029416;28;20225;-88
2021/06/25 09:39:07;;;;;;;5.25;4.85;;;22.10;99.90;;;;;;5002758;28;20208;-93
2021/06/25 09:41:33;;;;;;;17.65;5.57;;;21.90;99.90;;;;;;5016654;28;20548;-89
2021/06/25 09:44:01;;;;;;;6.75;5.82;;;22.00;99.90;;;;;;5019549;28;20170;-92
2021/06/25 09:46:28;;;;;;;8.48;5.93;;;22.20;99.90;;;;;;5002873;28;20176;-85
2021/06/25 09:48:56;;;;;;;10.88;7.10;;;22.20;99.90;;;;;;5011683;28;20177;-87
2021/06/25 09:51:22;;;;;;;22.13;7.05;;;22.20;99.90;;;;;;5007400;28;20185;-83
2021/06/25 09:54:11;;;;;;;9.93;5.68;;;22.10;99.90;;;;;;4996919;28;20197;-93
2021/06/25 09:56:47;;;;;;;15.88;5.95;;;22.00;99.90;;;;;;4997396;28;20208;-94
2021/06/25 10:01:55;;;;;;;22.30;7.32;;;22.30;99.90;;;;;;4997292;28;20193;-90
2021/06/25 10:04:35;;;;;;;6.72;5.78;;;22.00;99.90;;;;;;5001321;28;20165;-85
2021/06/25 10:07:13;;;;;;;5.57;5.07;;;21.60;99.90;;;;;;5001252;28;20173;-85
2021/06/25 10:09:40;;;;;;;6.85;6.10;;;21.70;99.90;;;;;;4997450;28;20236;-85
2021/06/25 10:12:10;;;;;;;6.25;5.65;;;21.90;99.90;;;;;;5000546;28;20338;-91
2021/06/25 10:14:36;;;;;;;6.38;5.55;;;22.30;99.90;;;;;;4997387;28;20177;-84
2021/06/25 10:17:05;;;;;;;12.45;5.53;;;22.40;99.90;;;;;;5018369;28;20216;-86
2021/06/25 10:19:37;;;;;;;6.72;4.80;;;22.60;99.90;;;;;;5010163;28;20176;-84
2021/06/25 10:22:04;;;;;;;6.13;5.53;;;22.70;99.90;;;;;;5009370;28;20192;-81
2021/06/25 10:24:33;;;;;;;11.32;5.47;;;22.70;99.90;;;;;;4993537;28;20537;-82
2021/06/25 10:27:01;;;;;;;6.32;5.47;;;22.50;99.90;;;;;;5009351;28;20618;-78
2021/06/25 10:29:27;;;;;;;5.82;5.30;;;22.40;99.90;;;;;;4994659;28;20200;-79
2021/06/25 10:31:56;;;;;;;12.85;6.10;;;22.40;99.90;;;;;;4994097;28;20193;-78
2021/06/25 10:34:21;;;;;;;17.88;5.45;;;22.20;99.90;;;;;;4995372;28;20174;-81
2021/06/25 10:36:49;;;;;;;6.43;5.43;;;22.10;99.90;;;;;;4993881;28;20739;-81
2021/06/25 10:39:15;;;;;;;8.27;5.55;;;22.30;99.90;;;;;;4993701;28;20181;-82
2021/06/25 10:41:57;;;;;;;8.35;5.70;;;22.40;99.90;;;;;;5009542;28;20193;-82
2021/06/25 10:44:41;;;;;;;5.70;5.20;;;22.50;99.90;;;;;;5008681;28;20157;-81
2021/06/25 10:47:31;;;;;;;8.93;5.78;;;22.60;99.90;;;;;;4993202;28;20187;-81
2021/06/25 10:50:04;;;;;;;5.25;4.75;;;22.60;99.90;;;;;;5008643;28;20177;-82
2021/06/25 10:52:37;;;;;;;11.02;4.00;;;22.50;99.90;;;;;;5008914;28;20649;-81
2021/06/25 10:55:06;;;;;;;4.78;3.83;;;22.40;99.90;;;;;;5009029;28;20181;-81
2021/06/25 10:57:58;;;;;;;5.28;4.88;;;22.30;99.90;;;;;;5008534;28;20254;-82
2021/06/25 11:00:37;;;;;;;7.53;4.65;;;22.20;99.90;;;;;;5008926;28;20169;-80
2021/06/25 11:03:02;;;;;;;6.28;4.68;;;22.20;99.90;;;;;;5009065;28;20228;-80
2021/06/25 11:05:31;;;;;;;5.93;5.45;;;22.00;99.90;;;;;;4995069;28;20181;-81
2021/06/25 11:08:00;;;;;;;5.40;4.90;;;22.40;99.90;;;;;;5010914;28;20174;-81
2021/06/25 11:10:33;;;;;;;7.32;5.10;;;22.50;99.90;;;;;;4993611;28;20262;-82
2021/06/25 11:13:15;;;;;;;6.78;5.10;;;22.70;99.90;;;;;;5009673;28;20208;-82
2021/06/25 11:15:44;;;;;;;7.50;6.35;;;22.50;99.90;;;;;;5010296;28;20359;-82
2021/06/25 11:18:17;;;;;;;6.72;5.97;;;22.40;99.90;;;;;;4993600;28;20192;-83
2021/06/25 11:20:53;;;;;;;6.75;5.53;;;22.40;99.90;;;;;;5009190;28;20169;-83
2021/06/25 11:23:26;;;;;;;8.13;5.50;;;22.20;99.90;;;;;;5008052;28;20662;-81
2021/06/25 11:26:00;;;;;;;9.45;6.65;;;22.40;99.90;;;;;;5008454;28;20216;-81
2021/06/25 11:28:40;;;;;;;7.85;6.35;;;22.30;99.90;;;;;;4996049;28;20169;-81
2021/06/25 11:31:14;;;;;;;7.03;6.40;;;22.30;99.90;;;;;;4998131;28;20165;-81
2021/06/25 11:33:50;;;;;;;6.22;5.63;;;22.30;99.90;;;;;;5010307;28;20304;-82
2021/06/25 11:36:38;;;;;;;8.25;6.55;;;22.50;99.90;;;;;;5011225;28;20287;-83
2021/06/25 11:39:21;;;;;;;6.22;5.72;;;22.50;99.90;;;;;;5011260;28;20742;-82
2021/06/25 11:41:58;;;;;;;9.13;5.38;;;22.50;99.90;;;;;;4995837;28;20173;-82
2021/06/25 11:44:47;;;;;;;6.10;5.53;;;22.50;99.90;;;;;;5010957;28;20196;-83
2021/06/25 11:47:27;;;;;;;6.57;5.97;;;22.60;99.90;;;;;;5011900;28;20265;-81
2021/06/25 11:52:51;;;;;;;8.82;5.55;;;22.30;99.90;;;;;;5000204;28;20207;-84
2021/06/25 11:55:17;;;;;;;6.32;5.47;;;22.30;99.90;;;;;;4995246;28;20231;-82
2021/06/25 11:57:42;;;;;;;9.65;4.93;;;21.80;99.90;;;;;;5012822;28;20180;-84
2021/06/25 12:00:15;;;;;;;6.20;5.60;;;22.00;99.90;;;;;;4997056;28;20174;-84
2021/06/25 12:02:53;;;;;;;6.30;5.80;;;22.10;99.90;;;;;;5012490;28;20548;-83
2021/06/25 12:05:26;;;;;;;5.07;4.57;;;22.10;99.90;;;;;;5012340;28;20176;-83
2021/06/25 12:08:16;;;;;;;6.45;4.72;;;21.80;99.90;;;;;;5012590;28;20196;-84
2021/06/25 12:11:00;;;;;;;11.73;5.90;;;21.80;99.90;;;;;;5019510;28;20184;-83
2021/06/25 12:13:26;;;;;;;8.25;4.93;;;22.00;99.90;;;;;;5019542;28;20228;-80
2021/06/25 12:15:53;;;;;;;7.30;5.15;;;22.10;99.90;;;;;;5034539;28;20200;-85
2021/06/25 12:18:20;;;;;;;7.07;5.72;;;22.40;99.90;;;;;;5010570;28;20176;-84
2021/06/25 12:20:46;;;;;;;7.00;6.28;;;22.80;99.90;;;;;;5024677;28;20192;-85
2021/06/25 12:23:12;;;;;;;5.95;5.40;;;22.90;99.90;;;;;;4998649;28;20193;-90
2021/06/25 12:25:43;;;;;;;6.25;5.45;;;22.50;99.90;;;;;;4999154;28;20486;-90
2021/06/25 12:28:20;;;;;;;5.63;4.80;;;22.40;99.90;;;;;;5014569;28;20607;-84
2021/06/25 12:30:56;;;;;;;5.40;5.00;;;22.20;99.90;;;;;;5001781;28;20237;-89
2021/06/25 12:33:24;;;;;;;7.57;4.65;;;22.20;99.90;;;;;;5013306;28;20199;-84
2021/06/25 12:35:55;;;;;;;9.40;5.05;;;21.90;99.90;;;;;;5014012;28;20197;-81
2021/06/25 12:38:26;;;;;;;5.57;5.07;;;22.00;99.90;;;;;;4998401;28;20275;-83
2021/06/25 12:41:06;;;;;;;10.68;6.40;;;22.20;99.90;;;;;;4998411;28;20173;-81
2021/06/25 12:43:41;;;;;;;6.13;5.22;;;22.20;99.90;;;;;;5013725;28;20189;-82
2021/06/25 12:46:12;;;;;;;10.13;5.78;;;22.50;99.90;;;;;;5014939;28;20604;-85
2021/06/25 12:48:49;;;;;;;6.57;5.93;;;22.40;99.90;;;;;;5013001;28;20661;-84
2021/06/25 12:51:20;;;;;;;20.77;5.82;;;22.40;99.90;;;;;;5012477;28;20183;-86
2021/06/25 12:53:49;;;;;;;10.77;6.30;;;22.90;99.90;;;;;;4997860;28;20340;-85
2021/06/25 12:56:22;;;;;;;11.30;5.75;;;23.10;99.90;;;;;;5012549;28;20223;-85
2021/06/25 12:58:55;;;;;;;10.32;5.97;;;23.40;99.90;;;;;;4997892;28;20249;-87